sensor_id;sensor_type;location;lat;lon;timestamp;pressure;altitude;pressure_sealevel;temperature;humidity
77079;BME280;66004;55.096;38.760;2023-06-10T00:00:34;100437.81;;;13.76;56.95
77079;BME280;66004;55.096;38.760;2023-06-10T00:02:59;100433.81;;;13.77;56.89
77079;BME280;66004;55.096;38.760;2023-06-10T00:05:24;100437.13;;;13.79;55.92
77079;BME280;66004;55.096;38.760;2023-06-10T00:07:50;100432.16;;;13.76;56.08
77079;BME280;66004;55.096;38.760;2023-06-10T00:10:16;100434.97;;;13.76;55.49
77079;BME280;66004;55.096;38.760;2023-06-10T00:12:41;100430.50;;;13.75;55.45
77079;BME280;66004;55.096;38.760;2023-06-10T00:15:07;100424.00;;;13.74;55.56
77079;BME280;66004;55.096;38.760;2023-06-10T00:17:33;100425.56;;;13.72;55.50
77079;BME280;66004;55.096;38.760;2023-06-10T00:19:59;100432.38;;;13.71;55.29
77079;BME280;66004;55.096;38.760;2023-06-10T00:22:28;100437.22;;;13.70;55.43
77079;BME280;66004;55.096;38.760;2023-06-10T00:24:55;100405.75;;;13.59;54.81
77079;BME280;66004;55.096;38.760;2023-06-10T00:27:22;100424.63;;;13.68;54.94
77079;BME280;66004;55.096;38.760;2023-06-10T00:29:48;100426.38;;;13.60;54.65
77079;BME280;66004;55.096;38.760;2023-06-10T00:32:16;100422.69;;;13.59;54.74
77079;BME280;66004;55.096;38.760;2023-06-10T00:34:41;100413.75;;;13.57;54.47
77079;BME280;66004;55.096;38.760;2023-06-10T00:37:07;100417.78;;;13.56;54.50
77079;BME280;66004;55.096;38.760;2023-06-10T00:39:32;100411.66;;;13.54;54.62
77079;BME280;66004;55.096;38.760;2023-06-10T00:41:58;100410.91;;;13.45;54.08
77079;BME280;66004;55.096;38.760;2023-06-10T00:44:23;100425.78;;;13.54;54.33
77079;BME280;66004;55.096;38.760;2023-06-10T00:46:49;100424.13;;;13.53;53.58
77079;BME280;66004;55.096;38.760;2023-06-10T00:49:16;100433.75;;;13.52;53.40
77079;BME280;66004;55.096;38.760;2023-06-10T00:51:42;100427.88;;;13.45;53.64
77079;BME280;66004;55.096;38.760;2023-06-10T00:54:08;100441.41;;;13.52;53.24
77079;BME280;66004;55.096;38.760;2023-06-10T00:56:35;100441.75;;;13.50;53.49
77079;BME280;66004;55.096;38.760;2023-06-10T00:59:00;100429.25;;;13.39;53.00
77079;BME280;66004;55.096;38.760;2023-06-10T01:01:26;100445.66;;;13.46;52.76
77079;BME280;66004;55.096;38.760;2023-06-10T01:03:52;100452.13;;;13.46;52.57
77079;BME280;66004;55.096;38.760;2023-06-10T01:09:41;100451.44;;;13.49;52.72
77079;BME280;66004;55.096;38.760;2023-06-10T01:12:29;100459.09;;;13.49;52.40
77079;BME280;66004;55.096;38.760;2023-06-10T01:14:56;100453.78;;;13.47;52.73
77079;BME280;66004;55.096;38.760;2023-06-10T01:17:23;100459.44;;;13.47;52.71
77079;BME280;66004;55.096;38.760;2023-06-10T01:19:56;100461.31;;;13.43;52.76
77079;BME280;66004;55.096;38.760;2023-06-10T01:22:26;100460.94;;;13.44;52.24
77079;BME280;66004;55.096;38.760;2023-06-10T01:24:57;100460.13;;;13.44;52.17
77079;BME280;66004;55.096;38.760;2023-06-10T01:27:26;100460.47;;;13.42;52.11
77079;BME280;66004;55.096;38.760;2023-06-10T01:29:59;100415.28;;;13.09;52.53
77079;BME280;66004;55.096;38.760;2023-06-10T01:32:29;100469.81;;;13.43;52.38
77079;BME280;66004;55.096;38.760;2023-06-10T01:34:59;100472.84;;;13.38;52.18
77079;BME280;66004;55.096;38.760;2023-06-10T01:37:26;100463.88;;;13.36;52.21
77079;BME280;66004;55.096;38.760;2023-06-10T01:39:52;100476.00;;;13.36;52.15
77079;BME280;66004;55.096;38.760;2023-06-10T01:42:20;100481.09;;;13.43;52.01
77079;BME280;66004;55.096;38.760;2023-06-10T01:44:46;100477.53;;;13.34;51.84
77079;BME280;66004;55.096;38.760;2023-06-10T01:47:11;100487.44;;;13.40;51.83
77079;BME280;66004;55.096;38.760;2023-06-10T01:49:37;100490.28;;;13.40;52.29
77079;BME280;66004;55.096;38.760;2023-06-10T01:52:02;100494.72;;;13.41;52.29
77079;BME280;66004;55.096;38.760;2023-06-10T01:54:28;100481.78;;;13.40;52.06
77079;BME280;66004;55.096;38.760;2023-06-10T01:56:54;100486.75;;;13.43;51.69
77079;BME280;66004;55.096;38.760;2023-06-10T01:59:20;100484.63;;;13.40;51.66
77079;BME280;66004;55.096;38.760;2023-06-10T02:01:45;100494.53;;;13.46;51.76
77079;BME280;66004;55.096;38.760;2023-06-10T02:04:11;100494.06;;;13.44;51.81
77079;BME280;66004;55.096;38.760;2023-06-10T02:06:36;100503.72;;;13.43;51.41
77079;BME280;66004;55.096;38.760;2023-06-10T02:09:03;100514.31;;;13.46;51.42
77079;BME280;66004;55.096;38.760;2023-06-10T02:11:28;100517.06;;;13.55;51.36
77079;BME280;66004;55.096;38.760;2023-06-10T02:13:54;100504.94;;;13.67;51.09
77079;BME280;66004;55.096;38.760;2023-06-10T02:16:20;100506.38;;;13.73;50.92
77079;BME280;66004;55.096;38.760;2023-06-10T02:18:46;100512.53;;;13.87;51.05
77079;BME280;66004;55.096;38.760;2023-06-10T02:21:14;100524.09;;;13.94;50.57
77079;BME280;66004;55.096;38.760;2023-06-10T02:23:39;100536.59;;;14.06;50.00
77079;BME280;66004;55.096;38.760;2023-06-10T02:26:05;100538.22;;;14.07;50.01
77079;BME280;66004;55.096;38.760;2023-06-10T02:28:31;100545.69;;;14.11;50.00
77079;BME280;66004;55.096;38.760;2023-06-10T02:30:56;100534.69;;;13.97;49.85
77079;BME280;66004;55.096;38.760;2023-06-10T02:33:22;100544.38;;;13.96;50.60
77079;BME280;66004;55.096;38.760;2023-06-10T02:35:48;100548.34;;;13.95;50.31
77079;BME280;66004;55.096;38.760;2023-06-10T02:38:13;100547.41;;;13.91;50.48
77079;BME280;66004;55.096;38.760;2023-06-10T02:40:39;100544.78;;;13.86;50.40
77079;BME280;66004;55.096;38.760;2023-06-10T02:43:04;100545.53;;;13.83;50.33
77079;BME280;66004;55.096;38.760;2023-06-10T02:45:30;100554.84;;;13.96;50.34
77079;BME280;66004;55.096;38.760;2023-06-10T02:47:56;100557.09;;;14.02;50.28
77079;BME280;66004;55.096;38.760;2023-06-10T02:50:21;100575.03;;;14.19;49.80
77079;BME280;66004;55.096;38.760;2023-06-10T02:52:47;100566.34;;;14.24;49.77
77079;BME280;66004;55.096;38.760;2023-06-10T02:55:12;100555.69;;;14.33;49.45
77079;BME280;66004;55.096;38.760;2023-06-10T02:57:38;100559.72;;;14.45;48.79
77079;BME280;66004;55.096;38.760;2023-06-10T03:00:04;100559.00;;;14.48;48.92
77079;BME280;66004;55.096;38.760;2023-06-10T03:02:34;100569.41;;;14.44;49.08
77079;BME280;66004;55.096;38.760;2023-06-10T03:05:03;100577.19;;;14.34;49.26
77079;BME280;66004;55.096;38.760;2023-06-10T03:07:28;100567.28;;;14.28;49.25
77079;BME280;66004;55.096;38.760;2023-06-10T03:09:54;100561.38;;;14.21;49.75
77079;BME280;66004;55.096;38.760;2023-06-10T03:12:19;100563.38;;;14.20;49.69
77079;BME280;66004;55.096;38.760;2023-06-10T03:14:45;100559.56;;;14.16;49.25
77079;BME280;66004;55.096;38.760;2023-06-10T03:17:10;100563.47;;;14.12;49.57
77079;BME280;66004;55.096;38.760;2023-06-10T03:19:36;100556.16;;;14.11;49.76
77079;BME280;66004;55.096;38.760;2023-06-10T03:22:14;100556.16;;;14.11;49.70
77079;BME280;66004;55.096;38.760;2023-06-10T03:24:40;100528.22;;;13.97;49.73
77079;BME280;66004;55.096;38.760;2023-06-10T03:27:12;100548.13;;;14.00;49.62
77079;BME280;66004;55.096;38.760;2023-06-10T03:29:39;100558.28;;;14.01;49.38
77079;BME280;66004;55.096;38.760;2023-06-10T03:32:05;100532.56;;;13.94;49.72
77079;BME280;66004;55.096;38.760;2023-06-10T03:34:30;100544.50;;;14.12;49.85
77079;BME280;66004;55.096;38.760;2023-06-10T03:36:57;100555.47;;;14.14;49.81
77079;BME280;66004;55.096;38.760;2023-06-10T03:39:22;100566.78;;;14.14;49.38
77079;BME280;66004;55.096;38.760;2023-06-10T03:41:49;100577.28;;;14.13;49.85
77079;BME280;66004;55.096;38.760;2023-06-10T03:44:15;100579.03;;;14.18;49.82
77079;BME280;66004;55.096;38.760;2023-06-10T03:46:40;100566.91;;;14.17;49.58
77079;BME280;66004;55.096;38.760;2023-06-10T03:49:06;100568.44;;;14.15;49.57
77079;BME280;66004;55.096;38.760;2023-06-10T03:51:32;100554.78;;;14.17;50.24
77079;BME280;66004;55.096;38.760;2023-06-10T03:53:57;100551.34;;;14.11;49.90
77079;BME280;66004;55.096;38.760;2023-06-10T03:56:23;100547.91;;;14.06;50.26
77079;BME280;66004;55.096;38.760;2023-06-10T03:58:48;100570.19;;;14.19;49.91
77079;BME280;66004;55.096;38.760;2023-06-10T04:01:14;100590.63;;;14.25;50.06
77079;BME280;66004;55.096;38.760;2023-06-10T04:03:39;100585.88;;;14.29;49.86
77079;BME280;66004;55.096;38.760;2023-06-10T04:06:07;100585.88;;;14.29;49.77
77079;BME280;66004;55.096;38.760;2023-06-10T04:08:32;100580.47;;;14.36;49.94
77079;BME280;66004;55.096;38.760;2023-06-10T04:10:58;100577.53;;;14.45;49.49
77079;BME280;66004;55.096;38.760;2023-06-10T04:13:24;100567.84;;;14.46;49.91
77079;BME280;66004;55.096;38.760;2023-06-10T04:15:50;100588.06;;;14.57;49.66
77079;BME280;66004;55.096;38.760;2023-06-10T04:18:16;100594.66;;;14.61;49.46
77079;BME280;66004;55.096;38.760;2023-06-10T04:20:42;100600.81;;;14.63;49.67
77079;BME280;66004;55.096;38.760;2023-06-10T04:23:08;100595.00;;;14.84;49.08
77079;BME280;66004;55.096;38.760;2023-06-10T04:25:33;100591.34;;;14.96;49.07
77079;BME280;66004;55.096;38.760;2023-06-10T04:27:59;100596.50;;;15.18;48.24
77079;BME280;66004;55.096;38.760;2023-06-10T04:30:25;100599.97;;;15.40;48.03
77079;BME280;66004;55.096;38.760;2023-06-10T04:32:50;100592.13;;;15.49;47.58
77079;BME280;66004;55.096;38.760;2023-06-10T04:35:17;100592.06;;;15.74;47.04
77079;BME280;66004;55.096;38.760;2023-06-10T04:37:42;100599.41;;;15.75;46.80
77079;BME280;66004;55.096;38.760;2023-06-10T04:40:08;100604.41;;;15.53;47.55
77079;BME280;66004;55.096;38.760;2023-06-10T04:42:34;100597.28;;;15.31;47.74
77079;BME280;66004;55.096;38.760;2023-06-10T04:45:00;100602.84;;;15.28;48.27
77079;BME280;66004;55.096;38.760;2023-06-10T04:47:26;100602.03;;;15.55;47.92
77079;BME280;66004;55.096;38.760;2023-06-10T04:49:52;100613.94;;;15.73;47.19
77079;BME280;66004;55.096;38.760;2023-06-10T04:52:17;100606.69;;;15.76;46.88
77079;BME280;66004;55.096;38.760;2023-06-10T04:54:43;100606.19;;;15.86;47.17
77079;BME280;66004;55.096;38.760;2023-06-10T04:57:09;100610.31;;;15.89;46.84
77079;BME280;66004;55.096;38.760;2023-06-10T04:59:37;100606.94;;;15.99;46.58
77079;BME280;66004;55.096;38.760;2023-06-10T05:02:04;100619.03;;;16.12;46.64
77079;BME280;66004;55.096;38.760;2023-06-10T05:04:30;100624.19;;;16.22;46.30
77079;BME280;66004;55.096;38.760;2023-06-10T05:06:56;100622.53;;;16.21;46.69
77079;BME280;66004;55.096;38.760;2023-06-10T05:09:21;100628.16;;;16.33;46.11
77079;BME280;66004;55.096;38.760;2023-06-10T05:11:47;100631.00;;;16.33;46.14
77079;BME280;66004;55.096;38.760;2023-06-10T05:14:12;100628.59;;;16.35;45.62
77079;BME280;66004;55.096;38.760;2023-06-10T05:16:38;100633.72;;;16.46;45.19
77079;BME280;66004;55.096;38.760;2023-06-10T05:19:04;100630.88;;;16.46;45.33
77079;BME280;66004;55.096;38.760;2023-06-10T05:21:30;100635.25;;;16.27;45.50
77079;BME280;66004;55.096;38.760;2023-06-10T05:23:55;100630.78;;;16.26;45.84
77079;BME280;66004;55.096;38.760;2023-06-10T05:26:21;100637.94;;;16.20;45.33
77079;BME280;66004;55.096;38.760;2023-06-10T05:28:47;100640.31;;;16.18;45.29
77079;BME280;66004;55.096;38.760;2023-06-10T05:31:12;100638.19;;;16.15;45.56
77079;BME280;66004;55.096;38.760;2023-06-10T05:33:39;100632.78;;;16.10;45.50
77079;BME280;66004;55.096;38.760;2023-06-10T05:36:05;100639.44;;;16.02;45.18
77079;BME280;66004;55.096;38.760;2023-06-10T05:38:31;100630.72;;;15.94;44.90
77079;BME280;66004;55.096;38.760;2023-06-10T05:40:56;100633.81;;;15.89;45.13
77079;BME280;66004;55.096;38.760;2023-06-10T05:43:24;100636.63;;;16.02;45.18
77079;BME280;66004;55.096;38.760;2023-06-10T05:45:49;100632.78;;;16.10;44.80
77079;BME280;66004;55.096;38.760;2023-06-10T05:48:15;100642.66;;;16.16;44.45
77079;BME280;66004;55.096;38.760;2023-06-10T05:50:41;100634.34;;;16.07;44.17
77079;BME280;66004;55.096;38.760;2023-06-10T05:53:08;100626.91;;;16.03;44.14
77079;BME280;66004;55.096;38.760;2023-06-10T05:55:43;100639.38;;;16.14;44.21
77079;BME280;66004;55.096;38.760;2023-06-10T05:58:11;100637.47;;;16.18;44.09
77079;BME280;66004;55.096;38.760;2023-06-10T06:00:38;100629.94;;;16.10;43.56
77079;BME280;66004;55.096;38.760;2023-06-10T06:03:06;100633.69;;;16.14;43.79
77079;BME280;66004;55.096;38.760;2023-06-10T06:05:32;100626.38;;;16.13;43.50
77079;BME280;66004;55.096;38.760;2023-06-10T06:08:01;100645.81;;;16.27;42.51
77079;BME280;66004;55.096;38.760;2023-06-10T06:10:27;100634.81;;;16.25;42.67
77079;BME280;66004;55.096;38.760;2023-06-10T06:12:53;100645.19;;;16.33;42.55
77079;BME280;66004;55.096;38.760;2023-06-10T06:15:18;100643.53;;;16.32;42.95
77079;BME280;66004;55.096;38.760;2023-06-10T06:17:44;100646.81;;;16.34;42.91
77079;BME280;66004;55.096;38.760;2023-06-10T06:20:09;100652.03;;;16.32;41.93
77079;BME280;66004;55.096;38.760;2023-06-10T06:22:35;100657.75;;;16.64;41.62
77079;BME280;66004;55.096;38.760;2023-06-10T06:25:01;100647.94;;;16.78;41.64
77079;BME280;66004;55.096;38.760;2023-06-10T06:27:26;100647.47;;;16.76;41.48
77079;BME280;66004;55.096;38.760;2023-06-10T06:29:51;100664.16;;;16.93;41.68
77079;BME280;66004;55.096;38.760;2023-06-10T06:32:17;100653.78;;;17.01;41.27
77079;BME280;66004;55.096;38.760;2023-06-10T06:34:43;100640.06;;;17.03;41.42
77079;BME280;66004;55.096;38.760;2023-06-10T06:37:08;100670.13;;;17.39;41.20
77079;BME280;66004;55.096;38.760;2023-06-10T06:39:34;100660.41;;;17.95;40.15
77079;BME280;66004;55.096;38.760;2023-06-10T06:41:59;100665.06;;;18.49;38.70
77079;BME280;66004;55.096;38.760;2023-06-10T06:44:25;100659.31;;;18.92;37.60
77079;BME280;66004;55.096;38.760;2023-06-10T06:46:50;100665.28;;;19.06;37.19
77079;BME280;66004;55.096;38.760;2023-06-10T06:49:16;100667.13;;;19.22;36.91
77079;BME280;66004;55.096;38.760;2023-06-10T06:51:41;100668.94;;;19.34;36.20
77079;BME280;66004;55.096;38.760;2023-06-10T06:54:06;100659.88;;;19.28;36.49
77079;BME280;66004;55.096;38.760;2023-06-10T06:56:32;100664.47;;;19.36;35.63
77079;BME280;66004;55.096;38.760;2023-06-10T06:58:57;100666.38;;;19.25;35.73
77079;BME280;66004;55.096;38.760;2023-06-10T07:01:23;100664.53;;;19.40;35.76
77079;BME280;66004;55.096;38.760;2023-06-10T07:03:48;100664.53;;;19.40;35.61
77079;BME280;66004;55.096;38.760;2023-06-10T07:06:14;100667.31;;;18.83;37.00
77079;BME280;66004;55.096;38.760;2023-06-10T07:08:40;100676.28;;;18.39;37.25
77079;BME280;66004;55.096;38.760;2023-06-10T07:11:05;100679.78;;;18.09;38.13
77079;BME280;66004;55.096;38.760;2023-06-10T07:13:31;100694.09;;;17.93;37.48
77079;BME280;66004;55.096;38.760;2023-06-10T07:15:56;100685.97;;;17.76;37.49
77079;BME280;66004;55.096;38.760;2023-06-10T07:18:21;100672.50;;;17.73;37.26
77079;BME280;66004;55.096;38.760;2023-06-10T07:20:47;100693.72;;;18.14;36.10
77079;BME280;66004;55.096;38.760;2023-06-10T07:23:12;100692.16;;;18.40;35.75
77079;BME280;66004;55.096;38.760;2023-06-10T07:25:38;100686.44;;;18.59;35.77
77079;BME280;66004;55.096;38.760;2023-06-10T07:28:04;100692.59;;;18.84;36.09
77079;BME280;66004;55.096;38.760;2023-06-10T07:30:29;100697.63;;;18.91;35.42
77079;BME280;66004;55.096;38.760;2023-06-10T07:32:55;100675.63;;;18.68;34.75
77079;BME280;66004;55.096;38.760;2023-06-10T07:35:21;100695.50;;;18.65;35.47
77079;BME280;66004;55.096;38.760;2023-06-10T07:37:46;100691.78;;;18.84;35.23
77079;BME280;66004;55.096;38.760;2023-06-10T07:40:12;100689.72;;;19.08;34.70
77079;BME280;66004;55.096;38.760;2023-06-10T07:42:37;100700.53;;;19.21;35.16
77079;BME280;66004;55.096;38.760;2023-06-10T07:45:04;100703.00;;;19.23;35.54
77079;BME280;66004;55.096;38.760;2023-06-10T07:47:30;100695.47;;;19.11;34.98
77079;BME280;66004;55.096;38.760;2023-06-10T07:49:56;100700.13;;;18.96;33.85
77079;BME280;66004;55.096;38.760;2023-06-10T07:52:22;100698.84;;;18.71;33.75
77079;BME280;66004;55.096;38.760;2023-06-10T07:54:47;100699.97;;;18.43;34.59
77079;BME280;66004;55.096;38.760;2023-06-10T07:57:13;100705.38;;;18.28;34.95
77079;BME280;66004;55.096;38.760;2023-06-10T07:59:38;100701.94;;;18.19;35.07
77079;BME280;66004;55.096;38.760;2023-06-10T08:02:04;100691.88;;;18.45;35.01
77079;BME280;66004;55.096;38.760;2023-06-10T08:04:30;100711.13;;;18.75;34.84
77079;BME280;66004;55.096;38.760;2023-06-10T08:06:56;100717.19;;;18.50;35.02
77079;BME280;66004;55.096;38.760;2023-06-10T08:09:22;100711.53;;;18.11;35.37
77079;BME280;66004;55.096;38.760;2023-06-10T08:11:48;100724.72;;;18.19;34.53
77079;BME280;66004;55.096;38.760;2023-06-10T08:14:15;100718.56;;;18.37;34.20
77079;BME280;66004;55.096;38.760;2023-06-10T08:16:41;100708.31;;;18.55;33.67
77079;BME280;66004;55.096;38.760;2023-06-10T08:19:06;100701.59;;;18.44;33.72
77079;BME280;66004;55.096;38.760;2023-06-10T08:21:34;100710.72;;;18.53;33.74
77079;BME280;66004;55.096;38.760;2023-06-10T08:24:01;100715.34;;;18.81;33.99
77079;BME280;66004;55.096;38.760;2023-06-10T08:26:27;100735.06;;;18.90;33.70
77079;BME280;66004;55.096;38.760;2023-06-10T08:28:52;100710.53;;;18.85;33.84
77079;BME280;66004;55.096;38.760;2023-06-10T08:31:18;100730.03;;;18.83;33.81
77079;BME280;66004;55.096;38.760;2023-06-10T08:33:43;100715.56;;;18.72;33.75
77079;BME280;66004;55.096;38.760;2023-06-10T08:36:09;100725.09;;;18.80;33.84
77079;BME280;66004;55.096;38.760;2023-06-10T08:38:34;100731.53;;;18.77;34.12
77079;BME280;66004;55.096;38.760;2023-06-10T08:41:00;100721.09;;;18.42;33.95
77079;BME280;66004;55.096;38.760;2023-06-10T08:43:33;100732.38;;;18.35;34.78
77079;BME280;66004;55.096;38.760;2023-06-10T08:46:00;100730.41;;;18.19;34.43
77079;BME280;66004;55.096;38.760;2023-06-10T08:48:30;100725.03;;;17.95;34.58
77079;BME280;66004;55.096;38.760;2023-06-10T08:50:57;100726.59;;;17.57;34.00
77079;BME280;66004;55.096;38.760;2023-06-10T08:53:23;100729.00;;;17.55;33.50
77079;BME280;66004;55.096;38.760;2023-06-10T08:55:51;100717.94;;;17.69;33.41
77079;BME280;66004;55.096;38.760;2023-06-10T08:58:17;100717.91;;;18.04;33.69
77079;BME280;66004;55.096;38.760;2023-06-10T09:00:44;100708.81;;;18.38;33.22
77079;BME280;66004;55.096;38.760;2023-06-10T09:03:10;100717.59;;;18.72;32.95
77079;BME280;66004;55.096;38.760;2023-06-10T09:05:36;100720.13;;;18.77;33.56
77079;BME280;66004;55.096;38.760;2023-06-10T09:08:02;100721.00;;;18.58;33.98
77079;BME280;66004;55.096;38.760;2023-06-10T09:10:29;100728.00;;;18.41;34.09
77079;BME280;66004;55.096;38.760;2023-06-10T09:12:54;100717.66;;;18.33;34.57
77079;BME280;66004;55.096;38.760;2023-06-10T09:15:20;100728.16;;;18.28;34.65
77079;BME280;66004;55.096;38.760;2023-06-10T09:17:46;100734.81;;;18.36;34.41
77079;BME280;66004;55.096;38.760;2023-06-10T09:20:11;100725.16;;;18.41;33.83
77079;BME280;66004;55.096;38.760;2023-06-10T09:22:37;100727.63;;;18.42;33.87
77079;BME280;66004;55.096;38.760;2023-06-10T09:25:07;100722.31;;;18.41;33.50
77079;BME280;66004;55.096;38.760;2023-06-10T09:27:47;100723.44;;;18.36;33.27
77079;BME280;66004;55.096;38.760;2023-06-10T09:30:29;100720.50;;;18.33;33.53
77079;BME280;66004;55.096;38.760;2023-06-10T09:32:56;100724.38;;;18.44;33.78
77079;BME280;66004;55.096;38.760;2023-06-10T09:35:24;100712.03;;;18.36;34.26
77079;BME280;66004;55.096;38.760;2023-06-10T09:37:51;100732.38;;;18.15;35.02
77079;BME280;66004;55.096;38.760;2023-06-10T09:40:17;100731.94;;;18.13;34.56
77079;BME280;66004;55.096;38.760;2023-06-10T09:42:43;100730.63;;;18.30;33.75
77079;BME280;66004;55.096;38.760;2023-06-10T09:45:08;100727.56;;;18.39;33.44
77079;BME280;66004;55.096;38.760;2023-06-10T09:47:34;100731.91;;;18.52;33.68
77079;BME280;66004;55.096;38.760;2023-06-10T09:50:00;100740.44;;;18.52;33.87
77079;BME280;66004;55.096;38.760;2023-06-10T09:52:28;100736.38;;;18.53;33.67
77079;BME280;66004;55.096;38.760;2023-06-10T09:54:59;100736.88;;;18.59;34.03
77079;BME280;66004;55.096;38.760;2023-06-10T09:57:25;100739.09;;;18.46;34.21
77079;BME280;66004;55.096;38.760;2023-06-10T09:59:54;100718.81;;;18.08;34.45
77079;BME280;66004;55.096;38.760;2023-06-10T10:02:20;100733.44;;;18.07;34.76
77079;BME280;66004;55.096;38.760;2023-06-10T10:04:46;100733.66;;;18.18;34.98
77079;BME280;66004;55.096;38.760;2023-06-10T10:07:12;100725.41;;;18.13;34.77
77079;BME280;66004;55.096;38.760;2023-06-10T10:09:39;100736.34;;;17.91;34.67
77079;BME280;66004;55.096;38.760;2023-06-10T10:12:09;100713.41;;;17.84;35.03
77079;BME280;66004;55.096;38.760;2023-06-10T10:14:36;100728.63;;;18.11;34.38
77079;BME280;66004;55.096;38.760;2023-06-10T10:17:04;100717.38;;;18.18;34.01
77079;BME280;66004;55.096;38.760;2023-06-10T10:19:40;100729.13;;;18.36;34.33
77079;BME280;66004;55.096;38.760;2023-06-10T10:22:11;100738.06;;;18.35;34.14
77079;BME280;66004;55.096;38.760;2023-06-10T10:24:50;100725.91;;;18.38;34.04
77079;BME280;66004;55.096;38.760;2023-06-10T10:27:40;100732.56;;;18.45;33.27
77079;BME280;66004;55.096;38.760;2023-06-10T10:30:10;100730.94;;;18.44;33.77
77079;BME280;66004;55.096;38.760;2023-06-10T10:32:57;100736.56;;;18.41;33.37
77079;BME280;66004;55.096;38.760;2023-06-10T10:35:30;100726.19;;;18.33;33.32
77079;BME280;66004;55.096;38.760;2023-06-10T10:37:55;100728.38;;;18.39;33.18
77079;BME280;66004;55.096;38.760;2023-06-10T10:40:22;100731.25;;;18.62;33.07
77079;BME280;66004;55.096;38.760;2023-06-10T10:42:49;100740.53;;;18.79;32.78
77079;BME280;66004;55.096;38.760;2023-06-10T10:45:16;100747.59;;;18.65;32.57
77079;BME280;66004;55.096;38.760;2023-06-10T10:47:43;100733.53;;;18.53;32.13
77079;BME280;66004;55.096;38.760;2023-06-10T10:50:18;100744.09;;;18.53;32.70
77079;BME280;66004;55.096;38.760;2023-06-10T10:52:55;100738.91;;;18.58;32.79
77079;BME280;66004;55.096;38.760;2023-06-10T10:55:22;100740.19;;;18.61;32.78
77079;BME280;66004;55.096;38.760;2023-06-10T10:58:05;100737.84;;;18.66;32.32
77079;BME280;66004;55.096;38.760;2023-06-10T11:00:36;100725.38;;;18.75;32.10
77079;BME280;66004;55.096;38.760;2023-06-10T11:05:42;100750.16;;;18.71;31.71
77079;BME280;66004;55.096;38.760;2023-06-10T11:08:10;100747.31;;;18.51;31.72
77079;BME280;66004;55.096;38.760;2023-06-10T11:10:38;100748.69;;;18.38;32.15
77079;BME280;66004;55.096;38.760;2023-06-10T11:13:14;100743.47;;;18.20;32.32
77079;BME280;66004;55.096;38.760;2023-06-10T11:15:45;100741.97;;;18.26;32.58
77079;BME280;66004;55.096;38.760;2023-06-10T11:18:24;100751.16;;;18.39;32.04
77079;BME280;66004;55.096;38.760;2023-06-10T11:21:01;100748.84;;;18.45;32.17
77079;BME280;66004;55.096;38.760;2023-06-10T11:26:15;100754.50;;;18.84;31.01
77079;BME280;66004;55.096;38.760;2023-06-10T11:29:05;100753.13;;;18.78;30.65
77079;BME280;66004;55.096;38.760;2023-06-10T11:31:40;100758.72;;;18.71;30.92
77079;BME280;66004;55.096;38.760;2023-06-10T11:34:07;100757.22;;;18.57;31.12
77079;BME280;66004;55.096;38.760;2023-06-10T11:36:36;100757.22;;;18.57;31.23
77079;BME280;66004;55.096;38.760;2023-06-10T11:39:04;100753.16;;;18.58;31.40
77079;BME280;66004;55.096;38.760;2023-06-10T11:41:32;100742.47;;;18.52;30.87
77079;BME280;66004;55.096;38.760;2023-06-10T11:44:07;100753.66;;;18.41;30.58
77079;BME280;66004;55.096;38.760;2023-06-10T11:46:33;100743.53;;;18.24;30.53
77079;BME280;66004;55.096;38.760;2023-06-10T11:48:59;100750.34;;;18.19;30.22
77079;BME280;66004;55.096;38.760;2023-06-10T11:51:28;100757.88;;;18.27;30.39
77079;BME280;66004;55.096;38.760;2023-06-10T11:53:54;100746.84;;;18.26;30.38
77079;BME280;66004;55.096;38.760;2023-06-10T11:56:24;100737.31;;;18.38;29.90
77079;BME280;66004;55.096;38.760;2023-06-10T11:59:04;100753.03;;;18.51;29.86
77079;BME280;66004;55.096;38.760;2023-06-10T12:01:32;100751.53;;;18.57;29.74
77079;BME280;66004;55.096;38.760;2023-06-10T12:06:24;100762.13;;;18.80;29.61
77079;BME280;66004;55.096;38.760;2023-06-10T12:08:50;100765.13;;;18.87;29.42
77079;BME280;66004;55.096;38.760;2023-06-10T12:11:15;100758.16;;;19.08;29.20
77079;BME280;66004;55.096;38.760;2023-06-10T12:13:48;100758.53;;;19.29;29.26
77079;BME280;66004;55.096;38.760;2023-06-10T12:16:15;100763.25;;;19.18;28.79
77079;BME280;66004;55.096;38.760;2023-06-10T12:18:42;100760.34;;;18.91;29.06
77079;BME280;66004;55.096;38.760;2023-06-10T12:21:23;100766.91;;;18.76;29.05
77079;BME280;66004;55.096;38.760;2023-06-10T12:24:08;100751.78;;;18.72;28.96
77079;BME280;66004;55.096;38.760;2023-06-10T12:26:42;100763.19;;;18.72;29.43
77079;BME280;66004;55.096;38.760;2023-06-10T12:29:25;100765.00;;;18.80;29.45
77079;BME280;66004;55.096;38.760;2023-06-10T12:32:01;100766.03;;;18.91;28.79
77079;BME280;66004;55.096;38.760;2023-06-10T12:34:38;100765.25;;;18.94;29.14
77079;BME280;66004;55.096;38.760;2023-06-10T12:37:05;100765.41;;;19.01;28.93
77079;BME280;66004;55.096;38.760;2023-06-10T12:39:35;100753.69;;;19.06;28.99
77079;BME280;66004;55.096;38.760;2023-06-10T12:42:00;100752.53;;;18.88;28.60
77079;BME280;66004;55.096;38.760;2023-06-10T12:44:39;100758.53;;;18.83;28.80
77079;BME280;66004;55.096;38.760;2023-06-10T12:47:10;100760.03;;;18.77;29.11
77079;BME280;66004;55.096;38.760;2023-06-10T12:49:38;100757.63;;;18.79;28.89
77079;BME280;66004;55.096;38.760;2023-06-10T12:52:05;100757.00;;;18.89;28.82